Time;durP1;ratioP1;P1;durP2;ratioP2;P2;SDS_P1;SDS_P2;PMS_P1;PMS_P2;Temp;Humidity;BMP_temperature;BMP_pressure;BME280_temperature;BME280_humidity;BME280_pressure;Samples;Min_cycle;Max_cycle;Signal;HPM_P1;HPM_P2
2021/09/23 00:00:05;;;;;;;33.10;19.15;;;13.70;99.60;;;;;;4974320;28;20023;-70
2021/09/23 00:05:03;;;;;;;37.55;19.90;;;13.80;99.40;;;;;;4973972;28;20031;-69
2021/09/23 00:07:28;;;;;;;35.80;19.60;;;13.90;99.40;;;;;;4973884;28;20058;-69
2021/09/23 00:09:54;;;;;;;36.80;20.15;;;13.90;99.40;;;;;;4973845;28;20093;-70
2021/09/23 00:12:20;;;;;;;34.85;19.52;;;13.90;99.40;;;;;;4973866;28;20094;-69
2021/09/23 00:14:45;;;;;;;33.33;18.48;;;13.90;99.30;;;;;;4974379;28;20026;-70
2021/09/23 00:17:11;;;;;;;31.83;18.70;;;13.90;99.20;;;;;;4973823;28;20377;-70
2021/09/23 00:19:36;;;;;;;34.40;19.73;;;13.90;99.20;;;;;;4974051;28;20452;-70
2021/09/23 00:22:02;;;;;;;40.20;18.70;;;14.00;99.20;;;;;;4964403;28;20039;-69
2021/09/23 00:24:28;;;;;;;33.28;19.90;;;13.90;99.30;;;;;;4958047;28;20059;-69
2021/09/23 00:26:53;;;;;;;34.08;18.45;;;13.90;99.40;;;;;;4973856;28;20030;-69
2021/09/23 00:29:19;;;;;;;34.70;19.67;;;13.80;99.30;;;;;;4973517;28;20023;-70
2021/09/23 00:31:45;;;;;;;34.40;19.23;;;13.80;99.30;;;;;;4973687;28;20118;-69
2021/09/23 00:34:10;;;;;;;36.47;20.52;;;13.90;99.20;;;;;;4973685;28;20058;-69
2021/09/23 00:36:36;;;;;;;37.85;20.80;;;13.90;99.20;;;;;;4973481;28;20065;-69
2021/09/23 00:39:01;;;;;;;38.50;19.10;;;13.90;99.10;;;;;;4973663;28;20027;-70
2021/09/23 00:41:27;;;;;;;34.10;18.80;;;13.90;99.00;;;;;;4973593;28;20070;-70
2021/09/23 00:43:53;;;;;;;40.50;21.17;;;14.00;99.00;;;;;;4973268;28;20035;-69
2021/09/23 00:46:19;;;;;;;42.78;21.27;;;14.00;98.90;;;;;;4973297;28;20042;-70
2021/09/23 00:48:49;;;;;;;36.85;19.63;;;14.00;98.90;;;;;;4973615;28;20060;-70
2021/09/23 00:51:17;;;;;;;37.92;19.75;;;14.00;98.90;;;;;;4972337;28;20062;-69
2021/09/23 00:53:43;;;;;;;34.88;18.48;;;14.00;98.80;;;;;;4973801;28;20019;-69
2021/09/23 00:56:09;;;;;;;39.58;20.30;;;14.00;98.80;;;;;;4973352;28;20468;-69
2021/09/23 00:58:36;;;;;;;35.70;19.50;;;14.00;98.80;;;;;;4973387;28;20046;-69
2021/09/23 01:01:01;;;;;;;34.58;20.17;;;14.00;98.90;;;;;;4973061;28;20034;-69
2021/09/23 01:03:27;;;;;;;33.75;19.23;;;13.90;98.90;;;;;;4973243;28;20041;-69
2021/09/23 01:05:53;;;;;;;34.40;19.15;;;14.00;98.90;;;;;;4973206;28;20030;-69
2021/09/23 01:08:18;;;;;;;34.33;19.20;;;13.90;98.90;;;;;;4972419;28;20047;-69
2021/09/23 01:10:44;;;;;;;35.42;18.80;;;13.90;98.90;;;;;;4972820;28;20053;-69
2021/09/23 01:13:09;;;;;;;39.45;20.08;;;13.90;98.90;;;;;;4972940;28;20046;-69
2021/09/23 01:15:35;;;;;;;37.35;20.33;;;14.00;98.90;;;;;;4972737;28;20039;-70
2021/09/23 01:18:00;;;;;;;34.10;19.80;;;13.90;99.00;;;;;;4973299;28;20034;-70
2021/09/23 01:20:26;;;;;;;35.58;19.98;;;13.90;99.10;;;;;;4972873;28;20034;-69
2021/09/23 01:22:52;;;;;;;41.95;21.08;;;13.80;99.00;;;;;;4972760;28;20049;-69
2021/09/23 01:25:20;;;;;;;35.60;20.70;;;13.80;98.90;;;;;;4972723;28;20488;-70
2021/09/23 01:27:46;;;;;;;41.25;20.85;;;13.90;99.00;;;;;;4971322;28;20049;-70
2021/09/23 01:30:12;;;;;;;39.75;20.42;;;13.80;98.90;;;;;;4972774;28;20038;-70
2021/09/23 01:32:37;;;;;;;40.53;20.38;;;13.80;98.90;;;;;;4972905;28;20019;-70
2021/09/23 01:35:03;;;;;;;40.58;21.20;;;13.80;98.90;;;;;;4974653;28;20045;-69
2021/09/23 01:37:29;;;;;;;35.72;20.17;;;13.80;98.90;;;;;;4991811;28;20031;-70
2021/09/23 01:39:54;;;;;;;38.05;20.70;;;13.80;98.90;;;;;;4992062;28;20460;-70
2021/09/23 01:42:21;;;;;;;40.50;21.55;;;13.80;98.90;;;;;;4991797;28;20026;-70
2021/09/23 01:44:47;;;;;;;40.75;21.33;;;13.80;98.90;;;;;;4991071;28;20057;-70
2021/09/23 01:47:13;;;;;;;39.80;21.10;;;13.80;98.80;;;;;;4991703;28;20121;-70
2021/09/23 01:49:38;;;;;;;39.53;21.13;;;13.80;98.90;;;;;;4991571;28;20027;-70
2021/09/23 01:52:04;;;;;;;39.03;21.40;;;13.80;98.80;;;;;;4991619;28;20352;-70
2021/09/23 01:54:30;;;;;;;38.13;22.20;;;13.70;98.70;;;;;;4991586;28;20410;-69
2021/09/23 01:56:55;;;;;;;39.40;20.58;;;13.70;98.80;;;;;;4992155;28;20397;-70
2021/09/23 01:59:22;;;;;;;41.17;21.83;;;13.70;98.80;;;;;;4991611;28;20031;-69
2021/09/23 02:01:48;;;;;;;38.97;21.90;;;13.70;98.80;;;;;;4991760;28;20109;-69
2021/09/23 02:04:14;;;;;;;37.45;20.50;;;13.70;98.80;;;;;;4990375;28;20138;-70
2021/09/23 02:06:40;;;;;;;41.53;21.55;;;13.70;98.80;;;;;;4991421;28;20034;-69
2021/09/23 02:09:05;;;;;;;49.08;23.25;;;13.60;98.80;;;;;;4991204;28;20432;-70
2021/09/23 02:11:31;;;;;;;41.42;22.55;;;13.60;98.80;;;;;;4991830;28;20026;-69
2021/09/23 02:14:00;;;;;;;44.95;22.50;;;13.60;98.70;;;;;;4991434;28;20035;-69
2021/09/23 02:16:25;;;;;;;42.35;22.15;;;13.60;98.70;;;;;;4991514;28;20069;-69
2021/09/23 02:18:51;;;;;;;41.42;22.42;;;13.60;98.80;;;;;;4991456;28;20058;-69
2021/09/23 02:21:16;;;;;;;41.55;22.70;;;13.50;98.70;;;;;;4993322;28;20029;-70
2021/09/23 02:23:42;;;;;;;44.17;22.98;;;13.60;98.80;;;;;;4995680;28;20026;-69
2021/09/23 02:26:08;;;;;;;48.80;23.05;;;13.60;98.80;;;;;;4995397;28;20049;-69
2021/09/23 02:28:38;;;;;;;46.28;23.40;;;13.60;98.80;;;;;;4995416;28;20050;-69
2021/09/23 02:31:05;;;;;;;40.78;23.02;;;13.50;98.80;;;;;;4995516;28;20038;-69
2021/09/23 02:33:30;;;;;;;40.58;22.55;;;13.50;98.80;;;;;;4995300;28;20129;-69
2021/09/23 02:35:56;;;;;;;37.80;22.02;;;13.50;98.90;;;;;;4995489;28;20423;-69
2021/09/23 02:38:21;;;;;;;40.92;22.63;;;13.50;98.80;;;;;;4995058;28;20030;-69
2021/09/23 02:40:47;;;;;;;44.33;23.42;;;13.50;98.80;;;;;;4994105;28;20117;-69
2021/09/23 02:43:13;;;;;;;43.17;23.58;;;13.50;98.70;;;;;;4993916;28;20469;-69
2021/09/23 02:45:40;;;;;;;45.42;23.10;;;13.50;98.80;;;;;;4995161;28;20026;-69
2021/09/23 02:48:05;;;;;;;45.30;24.90;;;13.50;98.80;;;;;;4994912;28;20514;-69
2021/09/23 02:50:31;;;;;;;44.60;23.83;;;13.50;98.70;;;;;;4995251;28;20018;-69
2021/09/23 02:52:57;;;;;;;44.70;22.45;;;13.40;98.70;;;;;;4994931;28;20046;-69
2021/09/23 02:55:23;;;;;;;42.65;22.48;;;13.40;98.90;;;;;;4994761;28;20744;-68
2021/09/23 02:57:48;;;;;;;46.75;23.88;;;13.40;98.90;;;;;;4994797;28;20045;-69
2021/09/23 03:00:14;;;;;;;47.08;23.92;;;13.40;98.80;;;;;;4994691;28;20026;-70
2021/09/23 03:02:40;;;;;;;48.45;24.60;;;13.50;98.70;;;;;;4995587;28;20033;-70
2021/09/23 03:05:06;;;;;;;42.92;25.23;;;13.40;98.80;;;;;;4994501;28;20029;-68
2021/09/23 03:07:31;;;;;;;47.50;24.10;;;13.40;98.70;;;;;;4994601;28;20526;-69
2021/09/23 03:09:57;;;;;;;45.05;23.65;;;13.40;98.70;;;;;;4994554;28;20373;-69
2021/09/23 03:12:22;;;;;;;45.78;23.70;;;13.40;98.80;;;;;;4994717;28;20113;-71
2021/09/23 03:14:48;;;;;;;42.97;23.60;;;13.40;98.70;;;;;;4994869;28;20046;-68
2021/09/23 03:17:13;;;;;;;42.35;23.42;;;13.40;98.80;;;;;;4994318;28;20027;-68
2021/09/23 03:19:39;;;;;;;43.92;23.83;;;13.40;98.60;;;;;;4994235;28;20050;-70
2021/09/23 03:22:05;;;;;;;50.55;26.10;;;13.40;98.70;;;;;;4994278;28;20041;-68
2021/09/23 03:24:31;;;;;;;49.17;24.50;;;13.40;98.70;;;;;;4994193;28;20093;-69
2021/09/23 03:26:56;;;;;;;51.30;25.38;;;13.40;98.70;;;;;;4994298;28;20030;-69
2021/09/23 03:29:22;;;;;;;47.15;23.77;;;13.40;98.70;;;;;;4993952;28;20046;-69
2021/09/23 03:31:48;;;;;;;48.35;23.88;;;13.40;98.70;;;;;;4993539;28;20045;-69
2021/09/23 03:34:13;;;;;;;45.60;23.85;;;13.40;98.80;;;;;;4994050;28;20034;-69
2021/09/23 03:36:39;;;;;;;48.42;25.23;;;13.30;98.80;;;;;;4993987;28;20058;-69
2021/09/23 03:39:05;;;;;;;45.70;24.20;;;13.30;98.70;;;;;;4993851;28;20550;-69
2021/09/23 03:41:32;;;;;;;53.40;26.00;;;13.30;98.90;;;;;;4994292;28;20088;-69
2021/09/23 03:43:58;;;;;;;50.63;26.45;;;13.30;98.90;;;;;;4993903;28;20492;-70
2021/09/23 03:46:24;;;;;;;53.20;25.88;;;13.30;98.80;;;;;;4993702;28;20038;-69
2021/09/23 03:48:49;;;;;;;49.33;24.90;;;13.30;98.80;;;;;;4992661;28;20519;-69
2021/09/23 03:51:15;;;;;;;48.08;24.58;;;13.30;98.70;;;;;;4993701;28;20034;-69
2021/09/23 03:53:42;;;;;;;48.35;26.77;;;13.30;98.80;;;;;;4994158;28;20600;-69
2021/09/23 03:56:12;;;;;;;49.88;26.38;;;13.40;98.70;;;;;;4993896;28;20027;-69
2021/09/23 03:58:41;;;;;;;49.53;25.95;;;13.30;98.70;;;;;;4993612;28;20038;-69
2021/09/23 04:01:06;;;;;;;45.97;24.90;;;13.30;98.70;;;;;;4993563;28;20037;-69
2021/09/23 04:03:32;;;;;;;52.17;25.33;;;13.30;98.70;;;;;;4993439;28;20113;-69
2021/09/23 04:05:58;;;;;;;56.47;26.83;;;13.40;98.60;;;;;;4993756;28;20109;-69
2021/09/23 04:08:23;;;;;;;53.65;26.52;;;13.40;98.60;;;;;;4993184;28;20157;-69
2021/09/23 04:10:49;;;;;;;47.80;26.17;;;13.30;98.60;;;;;;4993474;28;20034;-69
2021/09/23 04:13:15;;;;;;;51.55;27.23;;;13.30;98.60;;;;;;4993295;28;20027;-69
2021/09/23 04:15:42;;;;;;;58.33;28.73;;;13.40;98.70;;;;;;4993068;28;20022;-70
2021/09/23 04:18:08;;;;;;;61.10;30.20;;;13.40;98.70;;;;;;4993316;28;20018;-70
2021/09/23 04:20:34;;;;;;;54.53;28.70;;;13.30;98.60;;;;;;4993413;28;20035;-70
2021/09/23 04:23:00;;;;;;;57.25;29.27;;;13.40;98.50;;;;;;4992980;28;20138;-70
2021/09/23 04:25:25;;;;;;;58.33;28.45;;;13.40;98.60;;;;;;4993203;28;20037;-70
2021/09/23 04:27:51;;;;;;;55.42;28.67;;;13.40;98.50;;;;;;4992969;28;20360;-70
2021/09/23 04:30:17;;;;;;;51.40;26.88;;;13.40;98.50;;;;;;4993261;28;20581;-71
2021/09/23 04:32:43;;;;;;;57.88;28.60;;;13.40;98.50;;;;;;4993286;28;20018;-70
2021/09/23 04:35:09;;;;;;;55.75;28.85;;;13.50;98.50;;;;;;4992930;28;20066;-70
2021/09/23 04:37:34;;;;;;;50.58;28.58;;;13.50;98.40;;;;;;4992828;28;20464;-70
2021/09/23 04:40:00;;;;;;;55.78;28.48;;;13.40;98.50;;;;;;4992922;28;20035;-70
2021/09/23 04:42:26;;;;;;;54.13;27.50;;;13.40;98.60;;;;;;4992766;28;20030;-70
2021/09/23 04:44:51;;;;;;;58.65;29.00;;;13.40;98.50;;;;;;4992413;28;20022;-70
2021/09/23 04:47:17;;;;;;;61.33;28.65;;;13.40;98.40;;;;;;4992627;28;20499;-70
2021/09/23 04:49:44;;;;;;;60.45;29.58;;;13.40;98.50;;;;;;4992717;28;20027;-70
2021/09/23 04:52:10;;;;;;;55.58;29.48;;;13.40;98.50;;;;;;4992336;28;20475;-70
2021/09/23 04:54:36;;;;;;;62.72;30.00;;;13.40;98.50;;;;;;4992379;28;20038;-70
2021/09/23 04:57:02;;;;;;;57.60;30.13;;;13.40;98.50;;;;;;4993017;28;20101;-70
2021/09/23 04:59:28;;;;;;;58.80;28.73;;;13.40;98.50;;;;;;4992592;28;20280;-70
2021/09/23 05:01:53;;;;;;;65.13;31.02;;;13.50;98.40;;;;;;4992399;28;20516;-70
2021/09/23 05:04:19;;;;;;;61.05;29.33;;;13.40;98.30;;;;;;4992467;28;20311;-70
2021/09/23 05:06:44;;;;;;;56.55;29.33;;;13.40;98.40;;;;;;4992089;28;20489;-69
2021/09/23 05:09:10;;;;;;;59.72;30.17;;;13.40;98.30;;;;;;4992064;28;20061;-70
2021/09/23 05:11:36;;;;;;;63.92;29.63;;;13.50;98.30;;;;;;4992661;28;20037;-70
2021/09/23 05:14:02;;;;;;;57.80;30.13;;;13.50;98.20;;;;;;4992147;28;20540;-69
2021/09/23 05:16:27;;;;;;;64.75;30.27;;;13.50;98.20;;;;;;4992313;28;20053;-70
2021/09/23 05:18:53;;;;;;;62.33;29.75;;;13.50;98.20;;;;;;4991947;28;20544;-70
2021/09/23 05:21:18;;;;;;;63.80;31.90;;;13.50;98.20;;;;;;4992143;28;20030;-70
2021/09/23 05:23:44;;;;;;;60.72;31.00;;;13.50;98.20;;;;;;4992683;28;20054;-71
2021/09/23 05:26:10;;;;;;;55.83;28.27;;;13.60;98.30;;;;;;4985365;28;20480;-72
2021/09/23 05:28:36;;;;;;;60.05;30.05;;;13.60;98.30;;;;;;4972163;28;20056;-70
2021/09/23 05:31:03;;;;;;;60.22;31.48;;;13.60;98.30;;;;;;4972438;28;20098;-69
2021/09/23 05:33:29;;;;;;;61.95;29.35;;;13.70;98.20;;;;;;4972238;28;20038;-70
2021/09/23 05:35:55;;;;;;;63.28;30.88;;;13.70;98.20;;;;;;4972884;28;20117;-69
2021/09/23 05:38:23;;;;;;;64.28;31.67;;;13.60;98.10;;;;;;4972464;28;20035;-68
2021/09/23 05:40:48;;;;;;;62.10;30.33;;;13.70;98.20;;;;;;4972291;28;20031;-67
2021/09/23 05:43:14;;;;;;;68.60;32.03;;;13.70;98.10;;;;;;4972251;28;20610;-67
2021/09/23 05:45:40;;;;;;;61.97;31.83;;;13.70;98.20;;;;;;4972258;28;20039;-68
2021/09/23 05:48:05;;;;;;;70.25;31.00;;;13.70;98.50;;;;;;4972177;28;20019;-67
2021/09/23 05:50:31;;;;;;;60.50;28.50;;;13.70;98.40;;;;;;4972644;28;20441;-67
2021/09/23 05:52:56;;;;;;;63.35;30.85;;;13.80;98.50;;;;;;4972221;28;20035;-68
2021/09/23 05:55:22;;;;;;;67.45;31.25;;;13.80;98.60;;;;;;4971605;28;20038;-68
2021/09/23 05:57:48;;;;;;;59.30;29.38;;;13.80;98.40;;;;;;4971943;28;20889;-68
2021/09/23 06:00:15;;;;;;;60.78;29.50;;;13.80;98.30;;;;;;4972046;28;20023;-68
2021/09/23 06:02:43;;;;;;;63.63;30.33;;;13.80;98.30;;;;;;4971268;28;20362;-68
2021/09/23 06:05:11;;;;;;;59.30;29.58;;;13.80;98.30;;;;;;4972069;28;20042;-68
2021/09/23 06:07:37;;;;;;;60.75;30.25;;;13.80;98.30;;;;;;4971881;28;20039;-68
2021/09/23 06:10:08;;;;;;;58.45;29.27;;;13.90;98.30;;;;;;4971944;28;20062;-68
2021/09/23 06:12:34;;;;;;;57.83;28.33;;;13.90;98.30;;;;;;4972208;28;20126;-68
2021/09/23 06:14:59;;;;;;;56.65;30.95;;;14.00;98.10;;;;;;4972533;28;20102;-68
2021/09/23 06:17:25;;;;;;;70.80;30.58;;;14.10;98.00;;;;;;4971828;28;20035;-68
2021/09/23 06:19:50;;;;;;;52.45;28.02;;;14.20;97.90;;;;;;4971892;28;20031;-68
2021/09/23 06:22:16;;;;;;;55.38;26.90;;;14.20;97.80;;;;;;4971984;28;20052;-68
2021/09/23 06:24:42;;;;;;;53.92;25.42;;;14.30;97.70;;;;;;4971927;28;20126;-68
2021/09/23 06:27:08;;;;;;;48.15;24.13;;;14.40;97.50;;;;;;4971961;28;20027;-67
2021/09/23 06:29:34;;;;;;;55.45;26.48;;;14.50;97.30;;;;;;4972233;28;20081;-68
2021/09/23 06:31:59;;;;;;;44.38;22.92;;;14.60;97.20;;;;;;4971725;28;20027;-68
2021/09/23 06:34:25;;;;;;;40.60;21.30;;;14.70;97.10;;;;;;4971551;28;20030;-69
2021/09/23 06:36:51;;;;;;;40.72;20.50;;;14.70;96.80;;;;;;4971864;28;20035;-67
2021/09/23 06:39:16;;;;;;;40.15;20.13;;;14.90;96.80;;;;;;4971666;28;20037;-68
2021/09/23 06:41:42;;;;;;;39.15;20.40;;;14.90;96.80;;;;;;4972139;28;20037;-67
2021/09/23 06:44:08;;;;;;;41.33;20.33;;;14.90;96.60;;;;;;4971842;28;20035;-69
2021/09/23 06:46:34;;;;;;;42.90;20.80;;;15.00;96.70;;;;;;4971809;28;20109;-68
2021/09/23 06:49:00;;;;;;;34.72;18.90;;;15.10;96.50;;;;;;4971510;28;20041;-68
2021/09/23 06:51:26;;;;;;;32.03;18.63;;;15.10;96.30;;;;;;4971569;28;20126;-67
2021/09/23 06:53:51;;;;;;;35.00;19.15;;;15.20;96.00;;;;;;4971686;28;20469;-68
2021/09/23 06:56:17;;;;;;;40.33;19.08;;;15.30;95.90;;;;;;4971710;28;20035;-68
2021/09/23 06:58:43;;;;;;;35.08;18.52;;;15.40;96.10;;;;;;4971537;28;20517;-69
2021/09/23 07:01:09;;;;;;;34.22;17.67;;;15.40;95.90;;;;;;4971517;28;20109;-68
2021/09/23 07:03:34;;;;;;;35.30;18.90;;;15.50;95.70;;;;;;4971528;28;20104;-68
2021/09/23 07:06:00;;;;;;;37.17;19.75;;;15.60;96.00;;;;;;4970849;28;20022;-68
2021/09/23 07:08:26;;;;;;;37.00;19.00;;;15.70;95.60;;;;;;4973843;28;20295;-67
2021/09/23 07:10:52;;;;;;;35.22;18.35;;;15.70;95.60;;;;;;4975280;28;20061;-68
2021/09/23 07:13:18;;;;;;;33.08;17.48;;;15.70;95.50;;;;;;4975055;28;20070;-67
2021/09/23 07:15:44;;;;;;;28.58;16.90;;;15.80;95.20;;;;;;4974096;28;20070;-68
2021/09/23 07:18:09;;;;;;;34.17;17.52;;;15.80;95.00;;;;;;4974949;28;20035;-67
2021/09/23 07:20:35;;;;;;;34.42;16.73;;;15.80;94.90;;;;;;4975240;28;20026;-68
2021/09/23 07:23:00;;;;;;;35.17;17.27;;;15.90;94.90;;;;;;4973723;28;20058;-68
2021/09/23 07:25:26;;;;;;;36.47;17.95;;;15.90;94.70;;;;;;4973465;28;20035;-69
2021/09/23 07:27:53;;;;;;;35.50;17.73;;;15.90;94.70;;;;;;4974330;28;20038;-66
2021/09/23 07:30:20;;;;;;;32.75;16.40;;;16.00;94.70;;;;;;4974626;28;20049;-67
2021/09/23 07:32:46;;;;;;;30.63;16.42;;;16.00;94.60;;;;;;4974931;28;20049;-67
2021/09/23 07:35:12;;;;;;;32.35;16.65;;;16.00;94.40;;;;;;4974884;28;20030;-67
2021/09/23 07:37:38;;;;;;;33.28;15.52;;;16.10;94.30;;;;;;4974382;28;20027;-67
2021/09/23 07:40:06;;;;;;;30.10;15.00;;;16.10;94.20;;;;;;4974204;28;20035;-67
2021/09/23 07:42:32;;;;;;;31.67;16.00;;;16.20;94.30;;;;;;4974038;28;20031;-68
2021/09/23 07:44:59;;;;;;;32.00;16.15;;;16.20;94.00;;;;;;4974760;28;20557;-67
2021/09/23 07:47:24;;;;;;;39.58;16.40;;;16.20;94.00;;;;;;4974423;28;20038;-68
2021/09/23 07:49:51;;;;;;;28.73;16.60;;;16.30;94.00;;;;;;4974099;28;20038;-67
2021/09/23 07:52:16;;;;;;;35.88;16.10;;;16.40;93.80;;;;;;4973124;28;20378;-68
2021/09/23 07:54:42;;;;;;;43.65;17.42;;;16.40;93.80;;;;;;4974137;28;20042;-67
2021/09/23 07:57:08;;;;;;;36.78;17.83;;;16.40;93.60;;;;;;4973953;28;20086;-72
2021/09/23 07:59:33;;;;;;;32.65;16.30;;;16.50;93.60;;;;;;4974599;28;20035;-68
2021/09/23 08:01:59;;;;;;;27.85;15.35;;;16.60;93.80;;;;;;4973080;28;20035;-69
2021/09/23 08:04:25;;;;;;;36.15;16.58;;;16.60;93.40;;;;;;4974241;28;20039;-69
2021/09/23 08:06:50;;;;;;;32.58;15.80;;;16.70;93.40;;;;;;4973682;28;20519;-70
2021/09/23 08:09:16;;;;;;;29.05;15.60;;;16.70;93.30;;;;;;4972597;28;20458;-69
2021/09/23 08:11:43;;;;;;;28.42;15.40;;;16.80;93.30;;;;;;4974362;28;20042;-68
2021/09/23 08:14:08;;;;;;;29.17;14.25;;;16.90;92.80;;;;;;4973804;28;20057;-69
2021/09/23 08:16:34;;;;;;;25.48;12.88;;;16.90;92.70;;;;;;4973742;28;20030;-67
2021/09/23 08:18:59;;;;;;;25.45;13.60;;;17.00;92.80;;;;;;4973635;28;20512;-68
2021/09/23 08:21:27;;;;;;;28.20;14.32;;;17.00;92.60;;;;;;4973809;28;20101;-69
2021/09/23 08:23:53;;;;;;;26.67;13.40;;;17.10;92.60;;;;;;4974001;28;20023;-69
2021/09/23 08:26:19;;;;;;;25.08;12.73;;;17.20;92.40;;;;;;4973615;28;20049;-68
2021/09/23 08:28:44;;;;;;;22.58;12.68;;;17.20;92.50;;;;;;4972521;28;20496;-69
2021/09/23 08:31:15;;;;;;;27.65;13.75;;;17.30;92.10;;;;;;4973489;28;20085;-68
2021/09/23 08:33:41;;;;;;;28.33;13.35;;;17.40;92.00;;;;;;4972469;28;20093;-69
2021/09/23 08:36:06;;;;;;;24.35;12.80;;;17.50;92.10;;;;;;4973537;28;20374;-70
2021/09/23 08:38:32;;;;;;;22.25;12.23;;;17.60;92.00;;;;;;4972906;28;20515;-68
2021/09/23 08:40:57;;;;;;;22.83;12.50;;;17.70;92.00;;;;;;4973394;28;20043;-68
2021/09/23 08:43:23;;;;;;;29.33;13.88;;;17.80;91.70;;;;;;4973401;28;20434;-68
2021/09/23 08:45:52;;;;;;;24.02;13.48;;;18.00;91.60;;;;;;4973160;28;20062;-69
2021/09/23 08:48:18;;;;;;;21.23;10.88;;;18.10;91.60;;;;;;4972919;28;20031;-68
2021/09/23 08:50:44;;;;;;;24.42;10.98;;;18.20;91.00;;;;;;4973501;28;20023;-67
2021/09/23 08:53:09;;;;;;;21.15;11.30;;;18.50;90.90;;;;;;4972747;28;20103;-67
2021/09/23 08:55:35;;;;;;;22.52;11.90;;;19.00;90.60;;;;;;4971950;28;20053;-69
2021/09/23 08:58:06;;;;;;;23.48;10.10;;;19.50;89.60;;;;;;4972939;28;20046;-68
2021/09/23 09:00:34;;;;;;;20.17;10.25;;;19.90;88.80;;;;;;4972836;28;20031;-69
2021/09/23 09:03:05;;;;;;;19.35;9.05;;;20.30;87.10;;;;;;4973361;28;20019;-69
2021/09/23 09:05:31;;;;;;;18.73;9.30;;;20.90;86.20;;;;;;4972948;28;20118;-69
2021/09/23 09:08:07;;;;;;;17.90;8.52;;;21.20;85.40;;;;;;4972840;28;20114;-68
2021/09/23 09:10:34;;;;;;;20.08;9.30;;;21.50;83.40;;;;;;4973188;28;20051;-69
2021/09/23 09:13:04;;;;;;;16.38;8.52;;;21.70;81.80;;;;;;4972661;28;20038;-68
2021/09/23 09:15:42;;;;;;;15.15;8.52;;;21.90;81.50;;;;;;4972794;28;20465;-69
2021/09/23 09:18:19;;;;;;;17.42;8.85;;;22.40;80.30;;;;;;4972671;28;20046;-67
2021/09/23 09:21:01;;;;;;;14.60;8.43;;;22.50;78.30;;;;;;4972980;28;20015;-67
2021/09/23 09:23:36;;;;;;;15.48;7.60;;;22.40;78.90;;;;;;4972729;28;20035;-69
2021/09/23 09:26:02;;;;;;;19.30;8.80;;;22.70;77.30;;;;;;4971681;28;20420;-69
2021/09/23 09:28:27;;;;;;;11.38;7.55;;;22.70;76.20;;;;;;4972636;28;20469;-68
2021/09/23 09:30:55;;;;;;;15.63;7.55;;;22.70;75.40;;;;;;4972252;28;20050;-68
2021/09/23 09:33:22;;;;;;;18.13;8.10;;;22.80;75.60;;;;;;4972465;28;20041;-69
2021/09/23 09:35:48;;;;;;;14.97;7.87;;;22.70;75.60;;;;;;4972932;28;20023;-69
2021/09/23 09:38:14;;;;;;;16.63;7.30;;;22.80;75.90;;;;;;4972209;28;20035;-69
2021/09/23 09:40:42;;;;;;;15.50;7.10;;;22.80;75.70;;;;;;4972546;28;20057;-69
2021/09/23 09:43:12;;;;;;;14.70;7.68;;;22.90;76.30;;;;;;4972591;28;20039;-69
2021/09/23 09:45:39;;;;;;;15.82;7.65;;;23.00;75.50;;;;;;4972482;28;20114;-68
2021/09/23 09:48:05;;;;;;;14.60;7.63;;;23.20;73.70;;;;;;4972271;28;20023;-68
2021/09/23 09:50:33;;;;;;;12.77;8.13;;;23.20;74.40;;;;;;4971141;28;20414;-68
2021/09/23 09:53:06;;;;;;;15.43;8.07;;;23.00;73.90;;;;;;4972203;28;20142;-68
2021/09/23 09:55:34;;;;;;;17.55;6.50;;;23.00;73.10;;;;;;4972181;28;20034;-68
2021/09/23 09:58:00;;;;;;;;;;;23.10;73.80;;;;;;4972611;28;20520;-68
2021/09/23 10:00:28;;;;;;;12.85;6.72;;;23.30;73.50;;;;;;4971907;28;19916;-68
2021/09/23 10:02:53;;;;;;;13.80;6.40;;;23.40;72.50;;;;;;4972463;28;20019;-68
2021/09/23 10:05:20;;;;;;;11.02;6.38;;;23.40;72.20;;;;;;4971847;28;20046;-67
2021/09/23 10:07:50;;;;;;;10.55;6.57;;;23.20;72.40;;;;;;4971948;28;20258;-67
2021/09/23 10:10:17;;;;;;;12.30;5.90;;;22.80;71.90;;;;;;4971940;28;20400;-67
2021/09/23 10:12:44;;;;;;;13.02;5.38;;;23.00;73.30;;;;;;4971540;28;20027;-68
2021/09/23 10:15:17;;;;;;;17.67;6.80;;;23.20;71.60;;;;;;4971740;28;20019;-67
2021/09/23 10:17:45;;;;;;;13.68;5.43;;;23.40;71.80;;;;;;4972120;28;20457;-66
2021/09/23 10:20:12;;;;;;;8.90;5.35;;;23.30;71.20;;;;;;4971864;28;20054;-68
2021/09/23 10:22:38;;;;;;;10.70;5.20;;;23.30;70.60;;;;;;4971844;28;20035;-68
2021/09/23 10:25:07;;;;;;;11.40;6.20;;;22.90;70.50;;;;;;4971684;28;20101;-68
2021/09/23 10:30:19;;;;;;;11.75;4.63;;;22.80;71.70;;;;;;4971789;28;20037;-68
2021/09/23 10:32:45;;;;;;;10.82;5.05;;;22.90;71.90;;;;;;4972081;28;20023;-68
2021/09/23 10:35:14;;;;;;;12.60;4.90;;;22.80;72.00;;;;;;4971627;28;20031;-69
2021/09/23 10:37:41;;;;;;;7.95;4.60;;;22.80;72.20;;;;;;4971736;28;20094;-66
2021/09/23 10:40:09;;;;;;;13.68;4.93;;;22.90;72.30;;;;;;4972033;28;20423;-68
2021/09/23 10:42:35;;;;;;;12.43;5.20;;;23.30;71.50;;;;;;4973976;28;20461;-69
2021/09/23 10:45:04;;;;;;;10.95;5.60;;;23.00;71.70;;;;;;4975849;28;20353;-68
2021/09/23 10:47:35;;;;;;;10.93;5.10;;;22.50;72.70;;;;;;4975608;28;20473;-68
2021/09/23 10:50:05;;;;;;;12.75;6.28;;;22.90;72.70;;;;;;4975167;28;20035;-67
2021/09/23 10:52:34;;;;;;;16.30;6.97;;;22.50;72.10;;;;;;4975106;28;20026;-68
2021/09/23 10:55:02;;;;;;;11.98;6.75;;;22.70;72.50;;;;;;4975314;28;20027;-69
2021/09/23 10:57:30;;;;;;;13.05;7.05;;;23.10;73.40;;;;;;4975126;28;20042;-68
2021/09/23 10:59:56;;;;;;;;;;;23.20;72.70;;;;;;4975978;28;20044;-68
2021/09/23 11:02:30;;;;;;;14.38;7.13;;;23.50;72.60;;;;;;4974983;28;19910;-68
2021/09/23 11:04:59;;;;;;;20.23;8.40;;;23.60;72.50;;;;;;4974810;28;20042;-68
2021/09/23 11:07:30;;;;;;;12.45;8.15;;;23.20;73.20;;;;;;4974878;28;20454;-68
2021/09/23 11:10:20;;;;;;;14.10;7.15;;;23.00;74.50;;;;;;4974775;28;20138;-68
2021/09/23 11:12:48;;;;;;;13.48;6.97;;;23.30;74.50;;;;;;4974816;28;20055;-71
2021/09/23 11:15:18;;;;;;;12.40;7.55;;;23.10;74.80;;;;;;4973439;28;20093;-71
2021/09/23 11:17:45;;;;;;;17.02;9.35;;;22.90;75.30;;;;;;4975304;28;20019;-70
2021/09/23 11:20:14;;;;;;;21.48;8.70;;;22.40;76.20;;;;;;4974780;28;20612;-72
2021/09/23 11:22:46;;;;;;;15.43;7.53;;;22.50;76.50;;;;;;4974774;28;20037;-72
2021/09/23 11:25:18;;;;;;;22.40;8.35;;;22.60;77.90;;;;;;4974727;28;20039;-72
2021/09/23 11:27:46;;;;;;;14.80;7.32;;;22.80;76.50;;;;;;4973477;28;20094;-72
2021/09/23 11:30:14;;;;;;;20.10;8.65;;;23.20;75.90;;;;;;4974881;28;20102;-72
2021/09/23 11:32:55;;;;;;;22.65;10.57;;;23.00;76.20;;;;;;4974816;28;20034;-70
2021/09/23 11:35:26;;;;;;;21.52;9.43;;;23.30;76.40;;;;;;4974321;28;20031;-70
2021/09/23 11:37:53;;;;;;;17.85;9.02;;;22.80;76.00;;;;;;4973048;28;20106;-70
2021/09/23 11:40:24;;;;;;;18.25;9.88;;;22.20;77.60;;;;;;4974188;28;20035;-70
2021/09/23 11:42:50;;;;;;;20.10;9.70;;;22.00;78.20;;;;;;4974230;28;20110;-70
2021/09/23 11:45:20;;;;;;;18.50;9.48;;;21.90;79.30;;;;;;4974279;28;20450;-70
2021/09/23 11:48:10;;;;;;;13.57;8.45;;;21.70;79.20;;;;;;4974463;28;20038;-70
2021/09/23 11:50:42;;;;;;;19.23;9.82;;;22.00;79.80;;;;;;4974261;28;20109;-71
2021/09/23 11:53:10;;;;;;;18.50;8.73;;;22.00;79.50;;;;;;4973664;28;20034;-70
2021/09/23 11:56:06;;;;;;;16.58;8.07;;;22.10;79.10;;;;;;4974015;28;20027;-70
2021/09/23 11:58:35;;;;;;;21.42;10.25;;;22.00;79.60;;;;;;4974097;28;20142;-70
2021/09/23 12:01:02;;;;;;;18.50;9.35;;;22.00;79.70;;;;;;4973877;28;20547;-70
2021/09/23 12:03:27;;;;;;;17.27;8.90;;;21.80;79.90;;;;;;4974604;28;20377;-70
2021/09/23 12:05:56;;;;;;;15.32;8.20;;;21.60;79.90;;;;;;4974043;28;20253;-70
2021/09/23 12:08:25;;;;;;;16.25;8.05;;;21.50;80.10;;;;;;4973691;28;20492;-70
2021/09/23 12:10:59;;;;;;;23.85;8.70;;;21.50;80.20;;;;;;4973902;28;20039;-70
2021/09/23 12:13:34;;;;;;;16.63;9.63;;;21.30;80.50;;;;;;4973980;28;20031;-71
2021/09/23 12:16:22;;;;;;;18.75;8.55;;;21.20;80.80;;;;;;4974187;28;20377;-70
2021/09/23 12:18:49;;;;;;;19.63;8.27;;;21.20;81.20;;;;;;4973689;28;20041;-72
2021/09/23 12:21:25;;;;;;;24.10;9.02;;;21.30;80.90;;;;;;4973509;28;20019;-71
2021/09/23 12:23:56;;;;;;;18.98;7.03;;;21.30;81.30;;;;;;4973971;28;20070;-70
2021/09/23 12:26:31;;;;;;;14.55;7.60;;;21.50;81.10;;;;;;4973629;28;20074;-70
2021/09/23 12:29:09;;;;;;;16.58;7.10;;;21.30;79.90;;;;;;4972455;28;20043;-70
2021/09/23 12:31:37;;;;;;;15.20;7.65;;;21.50;80.50;;;;;;4972427;28;20446;-70
2021/09/23 12:34:04;;;;;;;;;;;21.20;80.60;;;;;;4972968;28;20043;-71